Time;durP1;ratioP1;P1;durP2;ratioP2;P2;SDS_P1;SDS_P2;PMS_P1;PMS_P2;Temp;Humidity;BMP_temperature;BMP_pressure;BME280_temperature;BME280_humidity;BME280_pressure;Samples;Min_cycle;Max_cycle;Signal;HPM_P1;HPM_P2
2023/05/30 00:01:33;;;;;;;18.07;4.87;;;;;;;;;;5054102;28;20681;-68
2023/05/30 00:04:00;;;;;;;15.33;5.13;;;;;;;;;;5053156;28;20286;-68
2023/05/30 00:06:27;;;;;;;17.53;5.80;;;;;;;;;;5035480;28;20702;-68
2023/05/30 00:08:53;;;;;;;15.03;5.30;;;;;;;;;;5035601;28;20660;-69
2023/05/30 00:11:19;;;;;;;16.73;5.87;;;;;;;;;;5035609;28;20181;-68
2023/05/30 00:13:45;;;;;;;20.10;5.80;;;;;;;;;;5053521;28;20275;-68
2023/05/30 00:16:12;;;;;;;16.83;5.77;;;;;;;;;;5035308;28;20226;-68
2023/05/30 00:18:38;;;;;;;17.33;6.10;;;;;;;;;;5035447;28;20199;-68
2023/05/30 00:21:09;;;;;;;14.93;6.13;;;;;;;;;;5035306;28;20182;-68
2023/05/30 00:23:37;;;;;;;17.67;6.20;;;;;;;;;;5053505;28;20224;-68
2023/05/30 00:26:04;;;;;;;21.33;7.17;;;;;;;;;;5053571;28;20187;-68
2023/05/30 00:28:30;;;;;;;17.93;6.30;;;;;;;;;;5053297;28;20190;-68
2023/05/30 00:30:56;;;;;;;18.53;5.73;;;;;;;;;;5066905;22;20603;-66
2023/05/30 00:33:22;;;;;;;13.30;5.77;;;;;;;;;;5053069;28;20194;-67
2023/05/30 00:35:48;;;;;;;14.70;4.33;;;;;;;;;;5053239;28;20182;-67
2023/05/30 00:38:15;;;;;;;14.87;4.87;;;;;;;;;;5052988;28;20614;-67
2023/05/30 00:40:41;;;;;;;15.67;4.73;;;;;;;;;;5053405;28;20198;-67
2023/05/30 00:43:07;;;;;;;15.57;5.20;;;;;;;;;;5053089;28;20179;-68
2023/05/30 00:45:33;;;;;;;15.27;5.30;;;;;;;;;;5052909;28;20185;-67
2023/05/30 00:47:59;;;;;;;14.67;4.93;;;;;;;;;;5052976;28;20197;-67
2023/05/30 00:50:28;;;;;;;18.20;4.60;;;;;;;;;;5052850;28;20220;-67
2023/05/30 00:52:54;;;;;;;24.67;5.83;;;;;;;;;;5052957;28;20175;-67
2023/05/30 00:55:20;;;;;;;14.20;4.83;;;;;;;;;;5052932;28;20182;-67
2023/05/30 00:57:47;;;;;;;17.33;4.87;;;;;;;;;;5035049;28;20206;-66
2023/05/30 01:00:14;;;;;;;15.43;5.37;;;;;;;;;;5052856;28;20187;-66
2023/05/30 01:02:43;;;;;;;13.63;4.70;;;;;;;;;;5035018;28;20174;-67
2023/05/30 01:05:12;;;;;;;15.70;3.90;;;;;;;;;;5034988;28;20639;-67
2023/05/30 01:07:41;;;;;;;14.17;3.83;;;;;;;;;;5052826;28;20648;-66
2023/05/30 01:10:07;;;;;;;16.87;4.10;;;;;;;;;;5034922;28;20182;-67
2023/05/30 01:12:37;;;;;;;18.87;4.87;;;;;;;;;;5034842;28;20202;-67
2023/05/30 01:15:11;;;;;;;15.93;5.37;;;;;;;;;;5052787;28;20636;-67
2023/05/30 01:17:57;;;;;;;15.00;4.17;;;;;;;;;;5039119;28;20660;-67
2023/05/30 01:20:24;;;;;;;11.70;4.07;;;;;;;;;;5056438;28;20175;-67
2023/05/30 01:23:00;;;;;;;16.47;4.50;;;;;;;;;;5056521;28;20174;-67
2023/05/30 01:25:27;;;;;;;14.33;4.30;;;;;;;;;;5056841;28;20536;-67
2023/05/30 01:28:07;;;;;;;15.07;4.23;;;;;;;;;;5038443;28;20190;-68
2023/05/30 01:30:33;;;;;;;14.33;3.87;;;;;;;;;;5055935;28;20573;-68
2023/05/30 01:33:00;;;;;;;14.57;4.00;;;;;;;;;;5056617;28;20155;-68
2023/05/30 01:35:26;;;;;;;16.80;4.00;;;;;;;;;;5038378;28;20668;-67
2023/05/30 01:37:52;;;;;;;15.77;4.10;;;;;;;;;;5038241;28;20209;-67
2023/05/30 01:40:21;;;;;;;16.30;4.47;;;;;;;;;;5056706;28;20549;-67
2023/05/30 01:42:49;;;;;;;15.53;4.43;;;;;;;;;;5056181;28;20202;-67
2023/05/30 01:45:26;;;;;;;14.57;4.17;;;;;;;;;;5056344;28;20178;-66
2023/05/30 01:47:59;;;;;;;13.13;4.10;;;;;;;;;;5056025;28;20253;-66
2023/05/30 01:50:29;;;;;;;18.63;4.10;;;;;;;;;;5058221;28;20644;-66
2023/05/30 01:52:58;;;;;;;18.70;4.57;;;;;;;;;;5056048;28;20274;-66
2023/05/30 01:55:26;;;;;;;13.27;3.53;;;;;;;;;;5038173;28;20179;-67
2023/05/30 01:57:52;;;;;;;13.87;4.53;;;;;;;;;;5038048;28;20641;-67
2023/05/30 02:00:18;;;;;;;16.77;4.53;;;;;;;;;;5038055;28;20210;-66
2023/05/30 02:02:44;;;;;;;11.27;3.80;;;;;;;;;;5055584;28;20179;-67
2023/05/30 02:05:10;;;;;;;14.13;4.83;;;;;;;;;;5037601;28;20193;-67
2023/05/30 02:07:36;;;;;;;19.20;4.87;;;;;;;;;;5055451;28;20187;-67
2023/05/30 02:10:03;;;;;;;17.27;4.00;;;;;;;;;;5055411;28;20174;-67
2023/05/30 02:12:30;;;;;;;24.33;4.70;;;;;;;;;;5037377;28;20206;-67
2023/05/30 02:14:56;;;;;;;16.03;4.50;;;;;;;;;;5055709;28;20652;-67
2023/05/30 02:17:22;;;;;;;14.93;4.20;;;;;;;;;;5055412;28;20206;-68
2023/05/30 02:19:49;;;;;;;17.00;3.90;;;;;;;;;;5055533;28;20179;-67
2023/05/30 02:22:15;;;;;;;14.97;4.13;;;;;;;;;;5055177;28;20695;-67
2023/05/30 02:24:41;;;;;;;18.07;5.20;;;;;;;;;;5037704;28;20186;-67
2023/05/30 02:27:07;;;;;;;15.60;4.43;;;;;;;;;;5055553;28;20181;-67
2023/05/30 02:29:33;;;;;;;14.87;4.73;;;;;;;;;;5037144;28;20178;-67
2023/05/30 02:31:59;;;;;;;14.13;4.43;;;;;;;;;;5055288;28;20584;-68
2023/05/30 02:34:25;;;;;;;18.07;5.00;;;;;;;;;;5037126;28;20236;-67
2023/05/30 02:36:51;;;;;;;18.03;4.60;;;;;;;;;;5054831;28;20199;-67
2023/05/30 02:39:17;;;;;;;19.23;5.17;;;;;;;;;;5055457;28;20171;-67
2023/05/30 02:41:43;;;;;;;16.50;4.60;;;;;;;;;;5036913;28;20198;-67
2023/05/30 02:44:09;;;;;;;18.37;4.93;;;;;;;;;;5054993;28;20680;-67
2023/05/30 02:46:35;;;;;;;20.37;4.57;;;;;;;;;;5054775;28;20182;-65
2023/05/30 02:49:01;;;;;;;17.07;4.43;;;;;;;;;;5054653;28;20611;-65
2023/05/30 02:51:28;;;;;;;19.90;5.23;;;;;;;;;;5054652;28;20226;-66
2023/05/30 02:53:54;;;;;;;16.00;5.37;;;;;;;;;;5036755;28;20236;-66
2023/05/30 02:56:22;;;;;;;17.30;5.23;;;;;;;;;;5036665;28;20566;-65
2023/05/30 02:58:49;;;;;;;19.97;4.77;;;;;;;;;;5036572;28;20209;-66
2023/05/30 03:01:15;;;;;;;21.47;6.13;;;;;;;;;;5054682;28;20194;-65
2023/05/30 03:03:42;;;;;;;18.57;5.47;;;;;;;;;;5054450;28;20316;-66
2023/05/30 03:06:08;;;;;;;22.93;5.93;;;;;;;;;;5054595;28;20175;-66
2023/05/30 03:08:36;;;;;;;21.70;5.50;;;;;;;;;;5054426;28;20725;-65
2023/05/30 03:11:02;;;;;;;17.87;5.13;;;;;;;;;;5054351;28;20194;-66
2023/05/30 03:13:27;;;;;;;20.50;5.40;;;;;;;;;;5054114;28;20229;-65
2023/05/30 03:15:53;;;;;;;16.77;4.70;;;;;;;;;;5054727;28;20262;-65
2023/05/30 03:18:19;;;;;;;20.07;5.33;;;;;;;;;;5054563;28;20623;-66
2023/05/30 03:20:46;;;;;;;17.17;5.53;;;;;;;;;;5053998;28;20690;-65
2023/05/30 03:23:12;;;;;;;19.50;5.70;;;;;;;;;;5054346;28;20189;-66
2023/05/30 03:25:38;;;;;;;19.10;5.60;;;;;;;;;;5053955;28;20182;-66
2023/05/30 03:28:07;;;;;;;16.93;4.97;;;;;;;;;;5053854;28;20706;-65
2023/05/30 03:30:33;;;;;;;14.73;4.70;;;;;;;;;;5035744;28;20203;-65
2023/05/30 03:32:59;;;;;;;15.03;5.00;;;;;;;;;;5054255;28;20159;-65
2023/05/30 03:35:25;;;;;;;16.33;4.80;;;;;;;;;;5035904;28;20195;-66
2023/05/30 03:37:51;;;;;;;20.30;6.15;;;;;;;;;;5052003;28;20413;-65
2023/05/30 03:40:17;;;;;;;20.43;6.40;;;;;;;;;;5053565;28;20227;-66
2023/05/30 03:42:44;;;;;;;23.73;5.90;;;;;;;;;;5053846;28;20181;-65
2023/05/30 03:45:10;;;;;;;17.33;6.17;;;;;;;;;;5035801;28;20174;-65
2023/05/30 03:47:36;;;;;;;20.70;6.17;;;;;;;;;;5035722;28;20183;-64
2023/05/30 03:50:02;;;;;;;20.40;6.07;;;;;;;;;;5053704;28;20193;-65
2023/05/30 03:52:28;;;;;;;20.57;6.77;;;;;;;;;;5053405;28;20200;-65
2023/05/30 03:54:54;;;;;;;23.10;6.83;;;;;;;;;;5053726;28;20610;-66
2023/05/30 03:57:20;;;;;;;19.47;5.73;;;;;;;;;;5035421;28;20217;-65
2023/05/30 03:59:47;;;;;;;19.80;6.37;;;;;;;;;;5053360;28;20245;-65
2023/05/30 04:02:13;;;;;;;19.23;6.43;;;;;;;;;;5053303;28;20214;-64
2023/05/30 04:04:40;;;;;;;19.00;6.07;;;;;;;;;;5053400;28;20170;-65
2023/05/30 04:07:07;;;;;;;17.27;6.30;;;;;;;;;;5053265;28;20244;-65
2023/05/30 04:09:33;;;;;;;24.90;7.67;;;;;;;;;;5053323;28;20601;-65
2023/05/30 04:11:58;;;;;;;18.30;7.17;;;;;;;;;;5035232;28;20222;-65
2023/05/30 04:14:24;;;;;;;22.67;6.90;;;;;;;;;;5053445;28;20170;-65
2023/05/30 04:16:50;;;;;;;15.07;6.37;;;;;;;;;;5035259;28;20211;-65
2023/05/30 04:19:16;;;;;;;19.70;7.17;;;;;;;;;;5053212;28;20206;-65
2023/05/30 04:21:42;;;;;;;15.90;6.17;;;;;;;;;;5052978;28;20198;-66
2023/05/30 04:24:08;;;;;;;17.63;6.37;;;;;;;;;;5053005;28;20181;-65
2023/05/30 04:26:36;;;;;;;21.13;6.57;;;;;;;;;;5035177;28;20262;-66
2023/05/30 04:29:02;;;;;;;26.93;6.80;;;;;;;;;;5052959;28;20546;-64
2023/05/30 04:31:28;;;;;;;20.10;6.20;;;;;;;;;;5053228;28;20218;-65
2023/05/30 04:33:55;;;;;;;15.73;5.67;;;;;;;;;;5053108;28;20179;-65
2023/05/30 04:36:21;;;;;;;17.50;6.03;;;;;;;;;;5035381;28;20187;-65
2023/05/30 04:38:48;;;;;;;16.37;6.03;;;;;;;;;;5035034;28;20205;-66
2023/05/30 04:41:20;;;;;;;18.83;6.80;;;;;;;;;;5052852;28;20198;-65
2023/05/30 04:43:54;;;;;;;19.80;7.57;;;;;;;;;;5035073;28;20236;-66
2023/05/30 04:46:23;;;;;;;21.20;6.90;;;;;;;;;;5035074;28;20175;-65
2023/05/30 04:48:53;;;;;;;22.60;8.23;;;;;;;;;;5053040;28;20611;-65
2023/05/30 04:51:23;;;;;;;20.90;7.20;;;;;;;;;;5038778;28;20676;-66
2023/05/30 04:53:49;;;;;;;22.93;7.90;;;;;;;;;;5039003;28;20189;-65
2023/05/30 04:56:16;;;;;;;20.73;8.43;;;;;;;;;;5057473;28;20183;-65
2023/05/30 04:58:44;;;;;;;16.43;6.50;;;;;;;;;;5056788;28;20210;-65
2023/05/30 05:01:10;;;;;;;17.30;7.60;;;;;;;;;;5038838;28;20198;-65
2023/05/30 05:03:40;;;;;;;13.80;6.73;;;;;;;;;;5056643;28;20223;-65
2023/05/30 05:06:07;;;;;;;27.27;7.33;;;;;;;;;;5056561;28;20205;-66
2023/05/30 05:08:34;;;;;;;18.23;8.37;;;;;;;;;;5056531;28;20647;-65
2023/05/30 05:11:03;;;;;;;18.57;7.93;;;;;;;;;;5038547;28;20302;-65
2023/05/30 05:13:29;;;;;;;20.50;8.37;;;;;;;;;;5056733;28;20174;-65
2023/05/30 05:15:55;;;;;;;20.07;10.67;;;;;;;;;;5056443;28;20194;-64
2023/05/30 05:18:22;;;;;;;22.77;10.10;;;;;;;;;;5038528;28;20206;-65
2023/05/30 05:20:48;;;;;;;24.07;10.47;;;;;;;;;;5056430;28;20194;-65
2023/05/30 05:23:14;;;;;;;20.53;9.50;;;;;;;;;;5056365;28;20174;-65
2023/05/30 05:25:40;;;;;;;25.03;10.50;;;;;;;;;;5056557;28;20174;-65
2023/05/30 05:28:06;;;;;;;20.93;12.83;;;;;;;;;;5056186;28;20186;-66
2023/05/30 05:30:32;;;;;;;16.70;11.57;;;;;;;;;;5056260;28;20213;-65
2023/05/30 05:32:58;;;;;;;20.40;10.23;;;;;;;;;;5038247;28;20178;-65
2023/05/30 05:35:24;;;;;;;21.17;11.00;;;;;;;;;;5038167;28;20231;-65
2023/05/30 05:37:50;;;;;;;20.83;10.63;;;;;;;;;;5055922;28;20210;-64
2023/05/30 05:40:16;;;;;;;18.63;10.40;;;;;;;;;;5056085;28;20186;-64
2023/05/30 05:42:43;;;;;;;20.97;11.43;;;;;;;;;;5056046;28;20174;-65
2023/05/30 05:45:09;;;;;;;20.43;10.97;;;;;;;;;;5056466;28;20175;-65
2023/05/30 05:47:35;;;;;;;24.30;11.63;;;;;;;;;;5037996;28;20182;-66
2023/05/30 05:50:01;;;;;;;24.67;10.40;;;;;;;;;;5055702;28;20209;-66
2023/05/30 05:52:27;;;;;;;19.60;9.73;;;;;;;;;;5055807;28;20248;-65
2023/05/30 05:54:53;;;;;;;22.10;10.27;;;;;;;;;;5055708;28;20179;-65
2023/05/30 05:57:19;;;;;;;20.73;11.03;;;;;;;;;;5056038;28;20202;-65
2023/05/30 05:59:45;;;;;;;25.73;11.23;;;;;;;;;;5037865;28;20183;-64
2023/05/30 06:02:12;;;;;;;19.93;10.67;;;;;;;;;;5055202;28;20194;-65
2023/05/30 06:04:38;;;;;;;20.63;11.60;;;;;;;;;;5056162;28;20606;-65
2023/05/30 06:07:04;;;;;;;24.33;11.03;;;;;;;;;;5055619;28;20244;-65
2023/05/30 06:09:34;;;;;;;22.53;10.53;;;;;;;;;;5055401;28;20182;-65
2023/05/30 06:12:00;;;;;;;19.70;11.10;;;;;;;;;;5037670;28;20198;-65
2023/05/30 06:14:26;;;;;;;23.43;10.47;;;;;;;;;;5055410;28;20174;-65
2023/05/30 06:16:53;;;;;;;26.33;11.63;;;;;;;;;;5037633;28;20236;-65
2023/05/30 06:19:19;;;;;;;19.10;10.87;;;;;;;;;;5037362;28;20214;-65
2023/05/30 06:21:45;;;;;;;18.60;10.07;;;;;;;;;;5055192;28;20201;-65
2023/05/30 06:24:10;;;;;;;26.07;9.60;;;;;;;;;;5055196;28;20175;-65
2023/05/30 06:26:36;;;;;;;20.67;9.40;;;;;;;;;;5055326;28;20263;-65
2023/05/30 06:29:02;;;;;;;19.40;10.23;;;;;;;;;;5055147;28;20228;-65
2023/05/30 06:31:28;;;;;;;15.83;9.93;;;;;;;;;;5037082;28;20222;-65
2023/05/30 06:33:54;;;;;;;17.70;10.43;;;;;;;;;;5037207;28;20201;-65
2023/05/30 06:36:20;;;;;;;19.47;10.27;;;;;;;;;;5055184;28;20189;-64
2023/05/30 06:38:46;;;;;;;23.30;10.77;;;;;;;;;;5055034;28;20254;-65
2023/05/30 06:41:14;;;;;;;24.47;11.53;;;;;;;;;;5055523;28;20656;-64
2023/05/30 06:43:40;;;;;;;18.87;10.63;;;;;;;;;;5054819;28;20182;-66
2023/05/30 06:46:06;;;;;;;18.83;9.57;;;;;;;;;;5054947;28;20183;-64
2023/05/30 06:48:32;;;;;;;22.47;11.10;;;;;;;;;;5055252;28;20221;-64
2023/05/30 06:50:58;;;;;;;16.80;9.53;;;;;;;;;;5054823;28;20202;-64
2023/05/30 06:53:24;;;;;;;15.73;9.47;;;;;;;;;;5055094;28;20201;-64
2023/05/30 06:55:50;;;;;;;21.03;9.43;;;;;;;;;;5054730;28;20210;-64
2023/05/30 06:58:17;;;;;;;13.70;9.13;;;;;;;;;;5054780;28;20233;-64
2023/05/30 07:00:43;;;;;;;17.43;9.47;;;;;;;;;;5054703;28;20222;-65
2023/05/30 07:03:09;;;;;;;16.80;9.40;;;;;;;;;;5036957;28;20236;-64
2023/05/30 07:05:35;;;;;;;15.97;9.33;;;;;;;;;;5036566;28;20186;-65
2023/05/30 07:08:01;;;;;;;20.80;10.63;;;;;;;;;;5036521;28;20363;-64
2023/05/30 07:10:27;;;;;;;16.87;10.30;;;;;;;;;;5067667;22;20703;-67
2023/05/30 07:12:53;;;;;;;20.23;11.97;;;;;;;;;;5036029;28;20565;-70
2023/05/30 07:15:19;;;;;;;19.23;10.73;;;;;;;;;;5036540;28;20261;-68
2023/05/30 07:17:45;;;;;;;14.47;10.27;;;;;;;;;;5054802;28;20209;-70
2023/05/30 07:20:11;;;;;;;17.93;9.97;;;;;;;;;;5054718;28;20225;-68
2023/05/30 07:22:38;;;;;;;14.27;10.17;;;;;;;;;;5054561;28;20577;-70
2023/05/30 07:25:05;;;;;;;12.30;9.60;;;;;;;;;;5055132;28;20181;-70
2023/05/30 07:27:31;;;;;;;18.67;11.10;;;;;;;;;;5055320;28;20174;-68
2023/05/30 07:29:57;;;;;;;19.70;11.30;;;;;;;;;;5036753;28;20245;-71
2023/05/30 07:32:23;;;;;;;21.70;11.33;;;;;;;;;;5055377;28;20300;-70
2023/05/30 07:34:57;;;;;;;23.20;11.43;;;;;;;;;;5112400;27;21049;-70
2023/05/30 07:37:23;;;;;;;18.57;10.70;;;;;;;;;;5111177;28;20226;-69
2023/05/30 07:39:49;;;;;;;18.03;9.73;;;;;;;;;;5111247;28;20199;-69
2023/05/30 07:42:15;;;;;;;22.60;10.80;;;;;;;;;;5110106;28;20624;-70
2023/05/30 07:44:41;;;;;;;18.93;9.83;;;;;;;;;;5111375;28;20209;-69
2023/05/30 07:47:07;;;;;;;21.67;10.37;;;;;;;;;;5110969;28;20175;-69
2023/05/30 07:49:33;;;;;;;19.20;10.27;;;;;;;;;;5111458;28;20180;-69
2023/05/30 07:51:59;;;;;;;16.47;10.17;;;;;;;;;;5111078;28;20551;-70
2023/05/30 07:54:25;;;;;;;22.53;10.83;;;;;;;;;;5109823;28;20196;-69
2023/05/30 07:56:51;;;;;;;22.20;10.40;;;;;;;;;;5111518;28;20172;-70
2023/05/30 07:59:17;;;;;;;22.07;10.77;;;;;;;;;;5109589;28;20180;-69
2023/05/30 08:01:45;;;;;;;17.13;9.50;;;;;;;;;;5110628;28;20212;-70
2023/05/30 08:04:11;;;;;;;14.70;9.20;;;;;;;;;;5110996;28;20177;-69
2023/05/30 08:06:36;;;;;;;17.03;9.70;;;;;;;;;;5109742;28;20191;-69
2023/05/30 08:09:02;;;;;;;17.20;9.17;;;;;;;;;;5110863;28;20187;-69
2023/05/30 08:11:28;;;;;;;15.87;9.10;;;;;;;;;;5110617;28;20253;-70
2023/05/30 08:13:55;;;;;;;17.43;9.73;;;;;;;;;;5110664;28;20773;-70
2023/05/30 08:16:21;;;;;;;17.60;8.90;;;;;;;;;;5110828;28;20242;-70
2023/05/30 08:18:47;;;;;;;19.67;9.03;;;;;;;;;;5110531;28;20177;-72
2023/05/30 08:21:13;;;;;;;11.90;7.63;;;;;;;;;;5110243;28;20264;-70
2023/05/30 08:23:39;;;;;;;20.63;8.47;;;;;;;;;;5109143;28;20180;-69
2023/05/30 08:26:08;;;;;;;18.27;8.50;;;;;;;;;;5110299;28;20650;-70
2023/05/30 08:28:34;;;;;;;16.97;8.57;;;;;;;;;;5108963;28;20646;-69
2023/05/30 08:31:00;;;;;;;14.83;7.90;;;;;;;;;;5110117;28;20197;-69
2023/05/30 08:33:26;;;;;;;14.90;8.13;;;;;;;;;;5109886;28;20215;-70
2023/05/30 08:35:52;;;;;;;15.37;8.53;;;;;;;;;;5108727;28;20567;-70
2023/05/30 08:38:18;;;;;;;13.53;7.70;;;;;;;;;;5108666;28;20184;-69
2023/05/30 08:40:45;;;;;;;14.07;7.67;;;;;;;;;;5110139;28;20566;-70
2023/05/30 08:43:11;;;;;;;14.10;8.13;;;;;;;;;;5110001;28;20551;-70
2023/05/30 08:45:37;;;;;;;17.60;7.00;;;;;;;;;;5100035;28;20177;-70
2023/05/30 08:48:05;;;;;;;14.13;7.30;;;;;;;;;;5096835;28;20174;-70
2023/05/30 08:50:32;;;;;;;13.47;7.60;;;;;;;;;;5096396;28;20235;-69
2023/05/30 08:53:02;;;;;;;15.90;7.60;;;;;;;;;;5096526;28;20205;-70
2023/05/30 08:55:31;;;;;;;13.47;7.03;;;;;;;;;;5094757;28;20700;-70
2023/05/30 08:58:04;;;;;;;16.70;7.37;;;;;;;;;;5096291;28;20180;-69
2023/05/30 09:00:31;;;;;;;12.90;7.10;;;;;;;;;;5094608;28;20193;-70
2023/05/30 09:02:58;;;;;;;16.10;7.50;;;;;;;;;;5096011;28;20207;-69
2023/05/30 09:05:24;;;;;;;17.77;7.23;;;;;;;;;;5094856;28;20553;-70
2023/05/30 09:07:52;;;;;;;11.30;5.20;;;;;;;;;;5095890;28;20596;-71
2023/05/30 09:10:19;;;;;;;15.97;6.20;;;;;;;;;;5094454;28;20254;-69
2023/05/30 09:12:45;;;;;;;14.17;6.03;;;;;;;;;;5095968;28;20215;-70
2023/05/30 09:15:11;;;;;;;14.27;5.73;;;;;;;;;;5094430;28;20234;-70
2023/05/30 09:17:37;;;;;;;10.73;5.67;;;;;;;;;;5094328;28;20268;-70
2023/05/30 09:20:06;;;;;;;11.03;5.83;;;;;;;;;;5094312;28;20196;-70
2023/05/30 09:22:32;;;;;;;17.77;5.97;;;;;;;;;;5095571;28;20169;-70
2023/05/30 09:25:00;;;;;;;12.77;6.10;;;;;;;;;;5095470;28;20169;-70
2023/05/30 09:27:27;;;;;;;12.30;5.87;;;;;;;;;;5095371;28;20248;-70
2023/05/30 09:29:53;;;;;;;20.67;6.03;;;;;;;;;;5094427;28;20602;-70
2023/05/30 09:32:22;;;;;;;14.23;6.60;;;;;;;;;;5095456;28;20181;-69
2023/05/30 09:34:56;;;;;;;21.33;5.90;;;;;;;;;;5093858;28;20240;-69
2023/05/30 09:37:23;;;;;;;18.07;6.57;;;;;;;;;;5093950;28;20177;-69
2023/05/30 09:40:21;;;;;;;12.40;5.33;;;;;;;;;;5093813;28;20239;-67
2023/05/30 09:42:49;;;;;;;11.83;5.77;;;;;;;;;;5050120;28;20565;-69
2023/05/30 09:45:16;;;;;;;10.97;5.20;;;;;;;;;;5094013;28;20181;-69
2023/05/30 09:47:46;;;;;;;18.43;5.93;;;;;;;;;;5095230;28;20256;-69
2023/05/30 09:50:13;;;;;;;17.43;6.27;;;;;;;;;;5094937;28;20229;-69
2023/05/30 09:52:40;;;;;;;15.07;7.50;;;;;;;;;;5095085;28;20252;-69
2023/05/30 09:55:07;;;;;;;9.33;4.97;;;;;;;;;;5095140;28;20221;-69
2023/05/30 09:57:36;;;;;;;13.50;6.13;;;;;;;;;;5093761;28;20177;-69
2023/05/30 10:00:09;;;;;;;11.70;5.10;;;;;;;;;;5093337;28;20193;-69
2023/05/30 10:02:36;;;;;;;16.50;6.63;;;;;;;;;;5093363;28;20180;-69
2023/05/30 10:05:02;;;;;;;16.00;5.90;;;;;;;;;;5094718;28;20180;-69
2023/05/30 10:07:28;;;;;;;13.57;5.83;;;;;;;;;;5093419;28;20181;-69
2023/05/30 10:09:55;;;;;;;11.87;6.93;;;;;;;;;;5093415;28;20217;-69
2023/05/30 10:12:21;;;;;;;12.67;7.10;;;;;;;;;;5094510;28;20619;-69
2023/05/30 10:14:48;;;;;;;19.00;8.33;;;;;;;;;;5093201;28;20209;-69
2023/05/30 10:17:19;;;;;;;19.40;7.90;;;;;;;;;;5093110;28;20177;-69
2023/05/30 10:19:55;;;;;;;16.53;7.63;;;;;;;;;;5094717;28;20161;-69
2023/05/30 10:22:24;;;;;;;15.30;6.50;;;;;;;;;;5094409;28;20172;-69
2023/05/30 10:24:51;;;;;;;15.70;6.80;;;;;;;;;;5094561;28;20215;-69
2023/05/30 10:27:28;;;;;;;13.27;6.23;;;;;;;;;;5094375;28;20215;-69
2023/05/30 10:30:03;;;;;;;14.20;6.20;;;;;;;;;;5093019;28;20211;-71
2023/05/30 10:32:31;;;;;;;15.13;6.70;;;;;;;;;;5092948;28;20184;-70
2023/05/30 10:35:05;;;;;;;14.93;6.53;;;;;;;;;;5092857;28;20224;-70
2023/05/30 10:37:30;;;;;;;13.43;6.43;;;;;;;;;;5094559;28;20214;-70
2023/05/30 10:40:06;;;;;;;14.97;7.17;;;;;;;;;;5094059;28;20275;-69
2023/05/30 10:42:37;;;;;;;9.67;5.43;;;;;;;;;;5092709;28;20176;-70
2023/05/30 10:45:16;;;;;;;13.47;6.10;;;;;;;;;;5092784;28;20177;-70
2023/05/30 10:48:00;;;;;;;15.77;6.50;;;;;;;;;;5092640;28;20604;-69
2023/05/30 10:50:30;;;;;;;17.13;6.07;;;;;;;;;;5092517;28;20201;-69
2023/05/30 10:52:56;;;;;;;13.00;6.23;;;;;;;;;;5092605;28;20208;-69
2023/05/30 10:55:22;;;;;;;12.47;6.17;;;;;;;;;;5092720;28;20603;-70
2023/05/30 10:57:48;;;;;;;11.70;5.70;;;;;;;;;;5092772;28;20188;-70
2023/05/30 11:00:22;;;;;;;18.50;6.60;;;;;;;;;;5093735;28;20702;-69
2023/05/30 11:02:55;;;;;;;15.03;5.73;;;;;;;;;;5092403;28;20208;-71
2023/05/30 11:05:30;;;;;;;10.87;5.20;;;;;;;;;;5092438;28;20177;-69
2023/05/30 11:07:58;;;;;;;14.13;5.00;;;;;;;;;;5092185;28;20258;-70
2023/05/30 11:10:25;;;;;;;11.37;5.87;;;;;;;;;;5092160;28;20311;-69
2023/05/30 11:12:52;;;;;;;13.87;5.63;;;;;;;;;;5093477;28;20173;-69
2023/05/30 11:15:31;;;;;;;12.97;5.70;;;;;;;;;;5093731;28;20180;-70
2023/05/30 11:17:57;;;;;;;11.20;5.30;;;;;;;;;;5093964;28;20211;-70
2023/05/30 11:20:23;;;;;;;10.73;5.27;;;;;;;;;;5093774;28;20197;-70
2023/05/30 11:23:01;;;;;;;15.27;5.23;;;;;;;;;;5092157;28;20177;-69
2023/05/30 11:25:28;;;;;;;10.93;5.50;;;;;;;;;;5093472;28;20613;-70
2023/05/30 11:28:01;;;;;;;17.63;5.77;;;;;;;;;;5092223;28;20177;-74
2023/05/30 11:30:27;;;;;;;11.07;6.10;;;;;;;;;;5093987;28;20682;-69
2023/05/30 11:32:53;;;;;;;9.07;5.87;;;;;;;;;;5092730;28;20279;-69
2023/05/30 11:35:22;;;;;;;12.73;6.03;;;;;;;;;;5094657;28;20166;-70
2023/05/30 11:38:16;;;;;;;13.00;6.20;;;;;;;;;;5093759;28;20169;-70
2023/05/30 11:40:42;;;;;;;10.53;5.50;;;;;;;;;;5092356;28;20568;-70
2023/05/30 11:43:08;;;;;;;13.23;6.63;;;;;;;;;;5093639;28;20203;-70
2023/05/30 11:45:35;;;;;;;8.90;5.20;;;;;;;;;;5093921;28;20188;-69
2023/05/30 11:48:08;;;;;;;18.03;7.13;;;;;;;;;;5092154;28;20184;-70
2023/05/30 11:50:38;;;;;;;11.60;6.10;;;;;;;;;;5093202;28;20696;-70
2023/05/30 11:53:09;;;;;;;9.47;5.20;;;;;;;;;;5093325;28;20636;-70
2023/05/30 11:55:35;;;;;;;12.00;5.80;;;;;;;;;;5092616;28;20166;-70
2023/05/30 11:58:01;;;;;;;19.03;6.77;;;;;;;;;;5093620;28;20177;-70
2023/05/30 12:00:27;;;;;;;16.43;6.43;;;;;;;;;;5092026;28;20235;-70
2023/05/30 12:02:53;;;;;;;10.70;6.07;;;;;;;;;;5091911;28;20177;-70
2023/05/30 12:05:19;;;;;;;13.00;5.67;;;;;;;;;;5093179;28;20607;-69
2023/05/30 12:07:51;;;;;;;12.73;5.33;;;;;;;;;;5091937;28;20210;-69
2023/05/30 12:10:17;;;;;;;11.00;6.27;;;;;;;;;;5093081;28;20197;-70
2023/05/30 12:12:44;;;;;;;10.20;5.47;;;;;;;;;;5093272;28;20176;-69
2023/05/30 12:15:11;;;;;;;14.47;6.57;;;;;;;;;;5093051;28;20178;-69
2023/05/30 12:17:41;;;;;;;13.70;5.20;;;;;;;;;;5091788;28;20643;-69
2023/05/30 12:20:09;;;;;;;12.17;5.83;;;;;;;;;;5094556;28;20193;-68
2023/05/30 12:22:35;;;;;;;10.37;6.10;;;;;;;;;;5095623;28;20205;-68
2023/05/30 12:25:08;;;;;;;15.25;7.25;;;;;;;;;;5094522;28;20859;-70
2023/05/30 12:27:34;;;;;;;13.73;5.95;;;;;;;;;;5095874;28;20378;-70
2023/05/30 12:30:11;;;;;;;13.90;6.27;;;;;;;;;;5096819;28;20250;-70
2023/05/30 12:32:37;;;;;;;15.20;6.53;;;;;;;;;;5095150;28;20169;-70
2023/05/30 12:35:04;;;;;;;10.47;5.43;;;;;;;;;;5097100;28;20191;-69
2023/05/30 12:37:30;;;;;;;17.67;6.33;;;;;;;;;;5095565;28;20185;-70
2023/05/30 12:40:00;;;;;;;14.47;6.70;;;;;;;;;;5095492;28;20201;-69
2023/05/30 12:42:27;;;;;;;12.80;6.20;;;;;;;;;;5096781;28;20545;-69
2023/05/30 12:44:57;;;;;;;10.37;6.30;;;;;;;;;;5096545;28;20176;-69
2023/05/30 12:47:23;;;;;;;16.17;6.67;;;;;;;;;;5096584;28;20170;-70
2023/05/30 12:49:49;;;;;;;12.77;6.50;;;;;;;;;;5095045;28;20225;-69
2023/05/30 12:52:17;;;;;;;13.80;6.20;;;;;;;;;;5095263;28;20222;-70
2023/05/30 12:54:43;;;;;;;13.20;5.40;;;;;;;;;;5096507;28;20196;-71
2023/05/30 12:57:10;;;;;;;9.23;4.93;;;;;;;;;;5096466;28;20181;-70
2023/05/30 12:59:36;;;;;;;7.53;5.00;;;;;;;;;;5094990;28;20233;-69
2023/05/30 13:02:03;;;;;;;10.73;5.53;;;;;;;;;;5096201;28;20181;-70
2023/05/30 13:04:29;;;;;;;12.17;5.40;;;;;;;;;;5096137;28;20185;-70
2023/05/30 13:06:55;;;;;;;17.77;6.17;;;;;;;;;;5094828;28;20195;-69
2023/05/30 13:09:21;;;;;;;12.67;5.47;;;;;;;;;;5095927;28;20614;-70
2023/05/30 13:11:47;;;;;;;16.10;6.07;;;;;;;;;;5096064;28;20203;-70
2023/05/30 13:14:13;;;;;;;16.10;6.63;;;;;;;;;;5096410;28;20213;-69
2023/05/30 13:16:40;;;;;;;13.60;5.43;;;;;;;;;;5094668;28;20181;-70
2023/05/30 13:19:08;;;;;;;13.33;5.33;;;;;;;;;;5094646;28;20242;-69
2023/05/30 13:21:35;;;;;;;10.43;5.00;;;;;;;;;;5095903;28;20190;-69
2023/05/30 13:24:01;;;;;;;13.23;5.80;;;;;;;;;;5095908;28;20177;-69
2023/05/30 13:26:27;;;;;;;10.67;4.47;;;;;;;;;;5096210;28;20203;-70
2023/05/30 13:28:53;;;;;;;9.30;5.50;;;;;;;;;;5096385;28;20177;-69
2023/05/30 13:31:19;;;;;;;11.40;4.80;;;;;;;;;;5095711;28;20212;-69
2023/05/30 13:33:45;;;;;;;10.83;5.60;;;;;;;;;;5096370;28;20239;-69
2023/05/30 13:36:11;;;;;;;11.77;4.90;;;;;;;;;;5095883;28;20235;-69
2023/05/30 13:38:39;;;;;;;9.73;5.17;;;;;;;;;;5095450;28;20181;-68
2023/05/30 13:41:05;;;;;;;15.40;4.77;;;;;;;;;;5094207;28;20208;-72
2023/05/30 13:43:31;;;;;;;11.27;5.38;;;;;;;;;;5093183;28;20733;-69
2023/05/30 13:45:57;;;;;;;9.23;4.53;;;;;;;;;;5096157;28;20177;-69
2023/05/30 13:48:23;;;;;;;11.37;5.07;;;;;;;;;;5095388;28;20173;-69
2023/05/30 13:50:52;;;;;;;8.27;5.30;;;;;;;;;;5095258;28;20201;-70
2023/05/30 13:53:19;;;;;;;10.93;5.00;;;;;;;;;;5092877;28;20837;-70
2023/05/30 13:55:45;;;;;;;6.83;4.17;;;;;;;;;;5093870;28;20259;-70
2023/05/30 13:58:11;;;;;;;7.17;4.27;;;;;;;;;;5095130;28;20657;-70
2023/05/30 14:00:37;;;;;;;9.23;4.60;;;;;;;;;;5094740;28;20185;-70
2023/05/30 14:03:03;;;;;;;11.40;4.90;;;;;;;;;;5093414;28;20586;-70
2023/05/30 14:05:29;;;;;;;11.43;4.87;;;;;;;;;;5093515;28;20208;-70
2023/05/30 14:07:56;;;;;;;9.53;4.80;;;;;;;;;;5093557;28;20193;-69
2023/05/30 14:10:22;;;;;;;10.83;5.13;;;;;;;;;;5093326;28;20210;-70
2023/05/30 14:12:51;;;;;;;8.80;5.00;;;;;;;;;;5093277;28;20669;-69
2023/05/30 14:15:17;;;;;;;12.63;5.20;;;;;;;;;;5093329;28;20651;-69
2023/05/30 14:17:44;;;;;;;11.87;4.90;;;;;;;;;;5093299;28;20272;-69
2023/05/30 14:20:10;;;;;;;8.73;4.60;;;;;;;;;;5094754;28;20193;-69
2023/05/30 14:22:37;;;;;;;11.27;4.67;;;;;;;;;;5094407;28;20176;-69
2023/05/30 14:25:03;;;;;;;9.30;4.67;;;;;;;;;;5093310;28;20662;-69
2023/05/30 14:27:30;;;;;;;6.93;4.60;;;;;;;;;;5095010;28;20190;-70
2023/05/30 14:29:56;;;;;;;14.03;4.50;;;;;;;;;;5093361;28;20200;-69